createdAt,value
2023-05-14T00:02:08.710Z,101183.98
2023-05-14T00:04:35.627Z,101184.29
2023-05-14T00:07:02.649Z,101180.98
2023-05-14T00:09:30.601Z,101179.56
2023-05-14T00:11:57.420Z,101183.20
2023-05-14T00:14:24.484Z,101182.13
2023-05-14T00:16:51.650Z,101178.90
2023-05-14T00:19:19.165Z,101173.27
2023-05-14T00:21:47.488Z,101173.83
2023-05-14T00:24:14.504Z,101178.22
2023-05-14T00:26:41.703Z,101181.58
2023-05-14T00:29:08.630Z,101181.58
2023-05-14T00:31:35.784Z,101186.33
2023-05-14T00:34:03.208Z,101183.45
2023-05-14T00:36:30.111Z,101184.63
2023-05-14T00:38:56.999Z,101188.29
2023-05-14T00:41:23.913Z,101190.41
2023-05-14T00:43:50.916Z,101187.70
2023-05-14T00:46:18.149Z,101187.17
2023-05-14T00:48:45.357Z,101191.33
2023-05-14T00:51:12.219Z,101188.70
2023-05-14T00:53:39.270Z,101186.77
2023-05-14T00:56:07.006Z,101182.10
2023-05-14T00:58:33.850Z,101181.65
2023-05-14T01:01:00.991Z,101178.92
2023-05-14T01:03:28.984Z,101177.80
2023-05-14T01:06:03.456Z,101175.96
2023-05-14T01:08:36.843Z,101174.30
2023-05-14T01:11:12.001Z,101172.69
2023-05-14T01:13:43.088Z,101176.34
2023-05-14T01:16:14.102Z,101177.45
2023-05-14T01:18:41.684Z,101176.17
2023-05-14T01:21:38.402Z,101179.77
2023-05-14T01:24:05.672Z,101182.19
2023-05-14T01:26:32.910Z,101181.61
2023-05-14T01:29:22.410Z,101181.19
2023-05-14T01:31:55.680Z,101190.39
2023-05-14T01:34:23.867Z,101197.90
2023-05-14T01:36:51.480Z,101199.16
2023-05-14T01:39:19.346Z,101194.95
2023-05-14T01:41:47.100Z,101191.23
2023-05-14T01:44:14.102Z,101188.98
2023-05-14T01:46:41.247Z,101183.77
2023-05-14T01:49:08.802Z,101183.12
2023-05-14T01:51:36.029Z,101183.34
2023-05-14T01:54:02.907Z,101178.89
2023-05-14T01:56:29.959Z,101177.16
2023-05-14T01:58:57.362Z,101177.45
2023-05-14T02:01:26.276Z,101177.09
2023-05-14T02:03:53.365Z,101176.16
2023-05-14T02:06:20.593Z,101175.52
2023-05-14T02:08:48.539Z,101176.62
2023-05-14T02:11:15.760Z,101177.48
2023-05-14T02:13:42.742Z,101179.17
2023-05-14T02:16:09.791Z,101179.30
2023-05-14T02:18:36.802Z,101182.10
2023-05-14T02:21:03.868Z,101182.33
2023-05-14T02:23:40.443Z,101184.30
2023-05-14T02:26:10.005Z,101181.54
2023-05-14T02:28:37.032Z,101175.40
2023-05-14T02:31:03.948Z,101176.27
2023-05-14T02:33:31.106Z,101179.86
2023-05-14T02:35:58.086Z,101176.98
2023-05-14T02:38:26.374Z,101176.44
2023-05-14T02:40:53.292Z,101174.08
2023-05-14T02:43:20.173Z,101172.97
2023-05-14T02:45:47.393Z,101170.77
2023-05-14T02:48:14.346Z,101172.14
2023-05-14T02:50:41.796Z,101171.34
2023-05-14T02:53:09.051Z,101174.96
2023-05-14T02:55:36.483Z,101182.33
2023-05-14T02:58:03.543Z,101184.24
2023-05-14T03:00:30.487Z,101180.25
2023-05-14T03:02:58.073Z,101178.31
2023-05-14T03:05:25.349Z,101171.83
2023-05-14T03:07:53.763Z,101168.48
2023-05-14T03:10:21.043Z,101170.75
2023-05-14T03:12:48.233Z,101174.86
2023-05-14T03:15:15.226Z,101178.40
2023-05-14T03:17:42.230Z,101180.37
2023-05-14T03:20:09.454Z,101178.36
2023-05-14T03:22:36.541Z,101177.16
2023-05-14T03:25:04.015Z,101180.16
2023-05-14T03:27:30.840Z,101175.45
2023-05-14T03:29:57.773Z,101173.34
2023-05-14T03:32:24.790Z,101172.15
2023-05-14T03:34:51.757Z,101173.48
2023-05-14T03:37:18.710Z,101174.52
2023-05-14T03:39:45.941Z,101177.65
2023-05-14T03:42:12.782Z,101179.17
2023-05-14T03:44:40.886Z,101181.25
2023-05-14T03:47:08.675Z,101183.92
2023-05-14T03:49:35.726Z,101185.47
2023-05-14T03:52:03.036Z,101187.55
2023-05-14T03:54:30.150Z,101195.95
2023-05-14T03:56:57.165Z,101196.67
2023-05-14T03:59:24.063Z,101195.59
2023-05-14T04:01:51.023Z,101191.80
2023-05-14T04:04:19.565Z,101192.14
2023-05-14T04:06:46.482Z,101185.65
2023-05-14T04:09:13.363Z,101185.30
2023-05-14T04:11:40.433Z,101186.50
2023-05-14T04:14:07.433Z,101186.77
2023-05-14T04:16:34.465Z,101184.23
2023-05-14T04:19:02.646Z,101184.14
2023-05-14T04:21:29.842Z,101185.75
2023-05-14T04:23:56.932Z,101183.59
2023-05-14T04:26:23.849Z,101183.00
2023-05-14T04:28:50.897Z,101180.01
2023-05-14T04:31:17.915Z,101180.81
2023-05-14T04:33:44.868Z,101176.84
2023-05-14T04:36:12.783Z,101178.85
2023-05-14T04:38:40.015Z,101176.58
2023-05-14T04:41:07.269Z,101179.09
2023-05-14T04:43:34.308Z,101182.37
2023-05-14T04:46:01.315Z,101181.69
2023-05-14T04:48:28.314Z,101184.12
2023-05-14T04:50:55.348Z,101186.24
2023-05-14T04:53:22.453Z,101185.30
2023-05-14T04:55:49.260Z,101182.34
2023-05-14T04:58:16.185Z,101183.74
2023-05-14T05:00:43.131Z,101185.33
2023-05-14T05:03:10.262Z,101182.71
2023-05-14T05:05:37.315Z,101179.05
2023-05-14T05:08:04.664Z,101177.96
2023-05-14T05:10:31.568Z,101178.11
2023-05-14T05:12:58.416Z,101176.58
2023-05-14T05:15:26.564Z,101177.95
2023-05-14T05:17:53.771Z,101180.10
2023-05-14T05:20:20.986Z,101178.61
2023-05-14T05:22:48.063Z,101177.36
2023-05-14T05:25:15.199Z,101177.75
2023-05-14T05:27:42.106Z,101182.17
2023-05-14T05:30:09.674Z,101181.71
2023-05-14T05:32:36.857Z,101183.14
2023-05-14T05:35:03.956Z,101184.89
2023-05-14T05:37:31.916Z,101183.66
2023-05-14T05:39:58.925Z,101187.23
2023-05-14T05:42:26.428Z,101183.45
2023-05-14T05:44:53.412Z,101183.05
2023-05-14T05:47:20.208Z,101180.90
2023-05-14T05:49:47.142Z,101180.10
2023-05-14T05:52:14.167Z,101182.09
2023-05-14T05:54:41.106Z,101181.79
2023-05-14T05:57:07.995Z,101182.33
2023-05-14T05:59:35.013Z,101183.83
2023-05-14T06:02:02.080Z,101184.69
2023-05-14T06:04:29.105Z,101183.01
2023-05-14T06:06:56.080Z,101183.17
2023-05-14T06:09:23.000Z,101181.88
2023-05-14T06:11:49.930Z,101180.50
2023-05-14T06:14:16.860Z,101181.79
2023-05-14T06:16:43.843Z,101181.80
2023-05-14T06:19:11.193Z,101179.73
2023-05-14T06:21:38.317Z,101181.02
2023-05-14T06:24:05.623Z,101185.27
2023-05-14T06:26:32.616Z,101181.14
2023-05-14T06:28:59.563Z,101180.01
2023-05-14T06:31:26.636Z,101183.30
2023-05-14T06:33:53.442Z,101185.17
2023-05-14T06:36:20.375Z,101184.70
2023-05-14T06:38:47.242Z,101182.04
2023-05-14T06:41:14.187Z,101176.95
2023-05-14T06:43:41.134Z,101175.11
2023-05-14T06:46:07.998Z,101173.75
2023-05-14T06:48:34.968Z,101179.34
2023-05-14T06:51:03.409Z,101179.94
2023-05-14T06:55:48.037Z,101174.91
2023-05-14T06:58:14.933Z,101175.52
2023-05-14T07:00:42.788Z,101177.50
2023-05-14T07:03:09.720Z,101175.23
2023-05-14T07:05:36.888Z,101177.52
2023-05-14T07:08:04.064Z,101176.94
2023-05-14T07:10:31.141Z,101177.86
2023-05-14T07:12:58.183Z,101174.69
2023-05-14T07:15:25.081Z,101172.59
2023-05-14T07:17:51.957Z,101171.92
2023-05-14T07:20:18.974Z,101167.52
2023-05-14T07:22:45.810Z,101166.86
2023-05-14T07:25:12.666Z,101168.05
2023-05-14T07:27:39.579Z,101165.91
2023-05-14T07:30:07.772Z,101164.58
2023-05-14T07:32:34.691Z,101162.45
2023-05-14T07:35:01.979Z,101161.83
2023-05-14T07:37:28.923Z,101158.58
2023-05-14T07:39:56.380Z,101158.71
2023-05-14T07:42:34.979Z,101156.60
2023-05-14T07:45:03.748Z,101159.34
2023-05-14T07:47:30.959Z,101157.70
2023-05-14T07:49:58.312Z,101156.48
2023-05-14T07:52:25.267Z,101156.58
2023-05-14T07:54:57.036Z,101155.88
2023-05-14T07:57:23.895Z,101150.64
2023-05-14T07:59:51.020Z,101151.05
2023-05-14T08:02:18.166Z,101155.84
2023-05-14T08:04:45.287Z,101150.02
2023-05-14T08:07:12.236Z,101149.48
2023-05-14T08:09:39.261Z,101150.11
2023-05-14T08:12:06.778Z,101144.36
2023-05-14T08:14:33.567Z,101140.25
2023-05-14T08:17:00.503Z,101143.71
2023-05-14T08:19:27.912Z,101143.22
2023-05-14T08:21:54.743Z,101137.48
2023-05-14T08:24:21.653Z,101136.54
2023-05-14T08:26:48.734Z,101130.80
2023-05-14T08:29:16.547Z,101132.21
2023-05-14T08:31:44.187Z,101129.36
2023-05-14T08:34:11.128Z,101123.80
2023-05-14T08:36:39.038Z,101121.83
2023-05-14T08:39:07.997Z,101113.63
2023-05-14T08:41:35.601Z,101112.35
2023-05-14T08:44:26.332Z,101111.73
2023-05-14T08:46:53.121Z,101110.19
2023-05-14T08:49:40.967Z,101106.82
2023-05-14T08:52:11.635Z,101105.59
2023-05-14T08:54:39.196Z,101099.91
2023-05-14T08:57:06.365Z,101099.77
2023-05-14T08:59:34.970Z,101102.41
2023-05-14T09:02:02.975Z,101099.39
2023-05-14T09:04:30.502Z,101095.45
2023-05-14T09:06:58.408Z,101094.58
2023-05-14T09:09:26.676Z,101090.23
2023-05-14T09:11:58.329Z,101086.82
2023-05-14T09:14:28.442Z,101086.20
2023-05-14T09:16:55.553Z,101085.62
2023-05-14T09:19:22.681Z,101082.30
2023-05-14T09:21:49.654Z,101078.73
2023-05-14T09:24:21.320Z,101074.73
2023-05-14T09:26:55.525Z,101072.00
2023-05-14T09:29:25.117Z,101066.16
2023-05-14T09:31:52.122Z,101066.80
2023-05-14T09:34:26.741Z,101069.03
2023-05-14T09:37:02.463Z,101065.28
2023-05-14T09:39:29.810Z,101063.49
2023-05-14T09:41:56.835Z,101061.63
2023-05-14T09:44:24.406Z,101057.26
2023-05-14T09:46:51.970Z,101057.44
2023-05-14T09:49:18.901Z,101058.14
2023-05-14T09:51:45.870Z,101055.55
2023-05-14T09:54:12.966Z,101055.34
2023-05-14T09:56:40.104Z,101054.98
2023-05-14T09:59:07.097Z,101054.83
2023-05-14T10:01:34.124Z,101051.95
2023-05-14T10:04:04.005Z,101049.63
2023-05-14T10:06:33.665Z,101053.58
2023-05-14T10:09:04.189Z,101050.31
2023-05-14T10:11:34.938Z,101050.91
2023-05-14T10:14:09.593Z,101051.83
2023-05-14T10:16:45.662Z,101045.88
2023-05-14T10:19:12.832Z,101047.35
2023-05-14T10:21:41.039Z,101042.48
2023-05-14T10:24:08.515Z,101041.48
2023-05-14T10:26:40.331Z,101036.91
2023-05-14T10:29:07.173Z,101031.96
2023-05-14T10:31:50.842Z,101033.42
2023-05-14T10:34:46.254Z,101029.34
2023-05-14T10:37:15.516Z,101033.39
2023-05-14T10:39:46.468Z,101030.86
2023-05-14T10:42:15.598Z,101028.71
2023-05-14T10:44:51.659Z,101027.15
2023-05-14T10:47:18.548Z,101026.73
2023-05-14T10:49:49.131Z,101022.32
2023-05-14T10:52:18.647Z,101022.23
2023-05-14T10:54:52.372Z,101017.30
2023-05-14T10:57:19.827Z,101018.79
2023-05-14T10:59:53.373Z,101023.23
2023-05-14T11:02:27.394Z,101020.40
2023-05-14T11:05:11.271Z,101016.39
2023-05-14T11:07:44.594Z,101018.70
2023-05-14T11:10:12.926Z,101014.23
2023-05-14T11:12:41.692Z,101013.81
2023-05-14T11:15:10.058Z,101009.94
2023-05-14T11:17:37.623Z,101013.05
2023-05-14T11:20:08.201Z,101009.11
2023-05-14T11:22:35.879Z,101007.02
2023-05-14T11:25:02.905Z,101003.28
2023-05-14T11:27:29.847Z,101004.67
2023-05-14T11:29:56.960Z,101002.79
2023-05-14T11:32:24.120Z,100996.95
2023-05-14T11:34:51.562Z,100998.85
2023-05-14T11:37:18.765Z,101002.86
2023-05-14T11:39:49.916Z,100994.33
2023-05-14T11:42:18.783Z,100992.42
2023-05-14T11:44:50.513Z,100993.39
2023-05-14T11:47:19.005Z,100988.33
2023-05-14T11:49:46.199Z,100985.50
2023-05-14T11:52:19.488Z,100981.48
2023-05-14T11:54:46.870Z,100987.36
2023-05-14T11:57:18.950Z,100985.46
2023-05-14T11:59:46.187Z,100983.41
2023-05-14T12:02:14.223Z,100987.44
2023-05-14T12:04:41.934Z,100989.66
2023-05-14T12:07:13.151Z,100986.36
2023-05-14T12:09:49.587Z,100982.55
2023-05-14T12:12:25.865Z,100980.30
2023-05-14T12:14:53.210Z,100976.39
2023-05-14T12:17:21.390Z,100973.15
2023-05-14T12:20:04.501Z,100977.11
2023-05-14T12:22:31.563Z,100975.62
2023-05-14T12:24:59.645Z,100971.67
2023-05-14T12:27:28.021Z,100969.51
2023-05-14T12:30:19.053Z,100970.56
2023-05-14T12:32:51.651Z,100966.23
2023-05-14T12:35:19.162Z,100966.42
2023-05-14T12:37:46.324Z,100963.00
2023-05-14T12:40:13.801Z,100962.00
2023-05-14T12:42:41.138Z,100955.67
2023-05-14T12:45:08.771Z,100952.33
2023-05-14T12:47:36.560Z,100953.39
2023-05-14T12:50:03.842Z,100949.23
2023-05-14T12:52:37.560Z,100945.06
2023-05-14T12:55:10.135Z,100947.45
2023-05-14T13:01:19.093Z,100941.54
2023-05-14T13:04:37.538Z,100941.56
2023-05-14T13:07:09.160Z,100937.66
2023-05-14T13:09:36.432Z,100939.77
2023-05-14T13:12:04.500Z,100940.38
2023-05-14T13:14:36.539Z,100938.98
2023-05-14T13:17:08.212Z,100936.95
2023-05-14T13:19:35.377Z,100939.95
2023-05-14T13:22:02.267Z,100941.17
2023-05-14T13:25:12.408Z,100942.87
2023-05-14T13:27:39.339Z,100942.23
2023-05-14T13:30:07.061Z,100940.86
2023-05-14T13:32:33.977Z,100944.99
2023-05-14T13:35:00.971Z,100940.42
2023-05-14T13:37:27.874Z,100941.61
2023-05-14T13:39:54.847Z,100941.30
2023-05-14T13:42:21.891Z,100941.95
2023-05-14T13:44:49.042Z,100941.84
2023-05-14T13:48:06.531Z,100943.98
2023-05-14T13:50:33.618Z,100941.46
2023-05-14T13:53:00.496Z,100947.21
2023-05-14T13:55:27.435Z,100945.98
2023-05-14T13:57:55.092Z,100951.05
2023-05-14T14:00:22.232Z,100953.30
2023-05-14T14:02:49.293Z,100954.63
2023-05-14T14:05:29.820Z,100963.68
2023-05-14T14:08:23.726Z,100972.90
2023-05-14T14:11:00.599Z,100967.88
2023-05-14T14:14:41.586Z,100969.60
2023-05-14T14:17:09.257Z,100971.62
2023-05-14T14:19:43.127Z,100973.82
2023-05-14T14:22:14.197Z,100973.76
2023-05-14T14:24:41.133Z,100980.85
2023-05-14T14:27:08.145Z,100981.02
2023-05-14T14:29:36.871Z,100984.98
2023-05-14T14:32:04.667Z,100982.27
2023-05-14T14:35:15.641Z,100978.75
2023-05-14T14:38:09.716Z,100972.08
2023-05-14T14:40:49.341Z,100966.21
2023-05-14T14:43:19.204Z,100963.22
2023-05-14T14:46:17.868Z,100966.13
2023-05-14T14:48:50.800Z,100963.35
2023-05-14T14:51:17.731Z,100964.23
2023-05-14T14:54:11.144Z,100959.09
2023-05-14T14:56:38.190Z,100957.77
2023-05-14T14:59:05.140Z,100953.92
2023-05-14T15:01:32.118Z,100952.56
2023-05-14T15:03:58.967Z,100952.36
2023-05-14T15:06:28.929Z,100952.14
2023-05-14T15:08:56.006Z,100950.89
2023-05-14T15:11:22.886Z,100949.95
2023-05-14T15:13:50.046Z,100948.59
2023-05-14T15:16:52.688Z,100944.89
2023-05-14T15:19:21.462Z,100943.98
2023-05-14T15:21:48.303Z,100939.39
2023-05-14T15:24:40.907Z,100937.48
2023-05-14T15:27:07.802Z,100931.45
2023-05-14T15:29:34.741Z,100932.64
2023-05-14T15:32:02.995Z,100929.48
2023-05-14T15:34:30.177Z,100923.14
2023-05-14T15:36:59.267Z,100922.77
2023-05-14T15:40:01.236Z,100921.10
2023-05-14T15:42:28.072Z,100917.76
2023-05-14T15:45:01.078Z,100918.63
2023-05-14T15:47:28.065Z,100917.63
2023-05-14T15:49:54.913Z,100910.52
2023-05-14T15:52:22.356Z,100908.27
2023-05-14T15:54:49.783Z,100907.23
2023-05-14T15:57:19.145Z,100907.27
2023-05-14T15:59:50.110Z,100901.77
2023-05-14T16:02:17.035Z,100899.05
2023-05-14T16:04:54.429Z,100895.76
2023-05-14T16:07:21.276Z,100895.88
2023-05-14T16:09:48.129Z,100893.94
2023-05-14T16:12:15.184Z,100893.08
2023-05-14T16:14:42.845Z,100891.60
2023-05-14T16:17:09.789Z,100895.29
2023-05-14T16:19:36.838Z,100894.38
2023-05-14T16:22:04.192Z,100893.84
2023-05-14T16:24:31.031Z,100892.07
2023-05-14T16:26:58.187Z,100888.97
2023-05-14T16:29:25.233Z,100891.35
2023-05-14T16:31:52.228Z,100887.81
2023-05-14T16:34:22.398Z,100887.73
2023-05-14T16:36:49.727Z,100886.20
2023-05-14T16:39:16.803Z,100886.88
2023-05-14T16:41:43.644Z,100889.10
2023-05-14T16:44:13.664Z,100892.51
2023-05-14T16:46:40.856Z,100890.63
2023-05-14T16:49:07.972Z,100892.62
2023-05-14T16:51:53.746Z,100892.52
2023-05-14T16:54:37.388Z,100891.41
2023-05-14T16:57:30.133Z,100892.00
2023-05-14T16:59:57.082Z,100889.52
2023-05-14T17:02:24.022Z,100889.14
2023-05-14T17:04:51.084Z,100892.83
2023-05-14T17:07:43.990Z,100891.92
2023-05-14T17:10:11.091Z,100887.58
2023-05-14T17:12:37.976Z,100887.05
2023-05-14T17:15:07.200Z,100888.36
2023-05-14T17:17:34.197Z,100889.64
2023-05-14T17:20:01.110Z,100888.07
2023-05-14T17:22:28.170Z,100891.13
2023-05-14T17:24:55.201Z,100893.29
2023-05-14T17:27:22.105Z,100894.59
2023-05-14T17:30:14.074Z,100894.33
2023-05-14T17:32:41.191Z,100890.88
2023-05-14T17:35:10.400Z,100896.09
2023-05-14T17:37:37.376Z,100896.26
2023-05-14T17:40:04.838Z,100899.21
2023-05-14T17:42:31.776Z,100901.37
2023-05-14T17:44:59.161Z,100902.77
2023-05-14T17:47:26.433Z,100900.98
2023-05-14T17:49:53.460Z,100903.95
2023-05-14T17:52:20.804Z,100903.65
2023-05-14T17:54:47.748Z,100907.42
2023-05-14T17:57:14.797Z,100912.31
2023-05-14T17:59:43.045Z,100915.86
2023-05-14T18:02:10.742Z,100917.58
2023-05-14T18:04:37.998Z,100916.35
2023-05-14T18:07:05.758Z,100914.15
2023-05-14T18:09:32.928Z,100913.29
2023-05-14T18:11:59.916Z,100914.79
2023-05-14T18:14:27.122Z,100916.05
2023-05-14T18:16:56.202Z,100917.61
2023-05-14T18:22:56.156Z,100915.63
2023-05-14T18:25:35.588Z,100914.64
2023-05-14T18:28:02.848Z,100918.45
2023-05-14T18:30:29.790Z,100920.36
2023-05-14T18:32:56.661Z,100920.02
2023-05-14T18:35:23.653Z,100919.75
2023-05-14T18:38:20.127Z,100916.75
2023-05-14T18:40:47.026Z,100919.05
2023-05-14T18:43:15.196Z,100915.57
2023-05-14T18:45:42.471Z,100914.52
2023-05-14T18:48:10.192Z,100913.85
2023-05-14T18:50:39.213Z,100911.78
2023-05-14T18:53:06.649Z,100912.91
2023-05-14T18:55:37.231Z,100911.23
2023-05-14T18:58:04.141Z,100913.23
2023-05-14T19:00:31.139Z,100910.98
2023-05-14T19:02:58.289Z,100908.46
2023-05-14T19:05:25.459Z,100907.70
2023-05-14T19:07:52.676Z,100906.41
2023-05-14T19:23:49.333Z,100911.08
2023-05-14T19:26:16.357Z,100915.06
2023-05-14T19:28:43.790Z,100917.43
2023-05-14T19:31:11.203Z,100916.46
2023-05-14T19:33:38.135Z,100914.77
2023-05-14T19:36:05.678Z,100915.87
2023-05-14T19:38:32.747Z,100915.54
2023-05-14T19:40:59.560Z,100913.34
2023-05-14T19:43:28.054Z,100913.86
2023-05-14T19:45:55.071Z,100911.53
2023-05-14T19:48:22.040Z,100910.80
2023-05-14T19:50:48.989Z,100913.46
2023-05-14T19:53:53.591Z,100913.80
2023-05-14T19:56:21.711Z,100915.94
2023-05-14T19:58:48.645Z,100916.92
2023-05-14T20:01:15.499Z,100913.34
2023-05-14T20:03:42.478Z,100911.10
2023-05-14T20:06:09.470Z,100909.73
2023-05-14T20:08:36.697Z,100911.73
2023-05-14T20:11:03.672Z,100909.99
2023-05-14T20:13:35.524Z,100908.72
2023-05-14T20:16:02.892Z,100905.50
2023-05-14T20:18:29.894Z,100904.18
2023-05-14T20:20:56.834Z,100904.70
2023-05-14T20:23:23.781Z,100902.05
2023-05-14T20:25:51.393Z,100900.29
2023-05-14T20:28:18.158Z,100898.64
2023-05-14T20:30:45.124Z,100898.98
2023-05-14T20:33:13.524Z,100896.88
2023-05-14T20:35:44.015Z,100894.26
2023-05-14T20:38:13.030Z,100889.06
2023-05-14T20:41:15.207Z,100887.66
2023-05-14T20:43:42.163Z,100882.39
2023-05-14T20:46:09.409Z,100884.45
2023-05-14T20:48:36.394Z,100883.05
2023-05-14T20:51:06.751Z,100880.01
2023-05-14T20:53:34.082Z,100875.86
2023-05-14T20:56:01.473Z,100875.02
2023-05-14T20:58:28.480Z,100877.23
2023-05-14T21:00:55.425Z,100880.73
2023-05-14T21:03:22.313Z,100879.35
2023-05-14T21:05:49.520Z,100882.09
2023-05-14T21:08:16.834Z,100879.60
2023-05-14T21:10:43.928Z,100877.48
2023-05-14T21:13:10.884Z,100877.20
2023-05-14T21:15:37.932Z,100880.73
2023-05-14T21:18:04.851Z,100881.96
2023-05-14T21:20:31.710Z,100881.59
2023-05-14T21:22:58.556Z,100880.88
2023-05-14T21:26:29.160Z,100877.59
2023-05-14T21:28:56.136Z,100878.14
2023-05-14T21:31:25.920Z,100879.15
2023-05-14T21:33:53.410Z,100880.96
2023-05-14T21:36:21.280Z,100880.77
2023-05-14T21:38:48.146Z,100879.95
2023-05-14T21:41:15.070Z,100878.58
2023-05-14T21:43:42.010Z,100874.65
2023-05-14T21:46:08.927Z,100873.17
2023-05-14T21:48:35.842Z,100872.41
2023-05-14T21:51:02.850Z,100871.27
2023-05-14T21:53:29.650Z,100874.33
2023-05-14T21:55:56.533Z,100871.42
2023-05-14T21:58:23.345Z,100874.13
2023-05-14T22:00:50.348Z,100872.79
2023-05-14T22:03:17.474Z,100874.81
2023-05-14T22:05:44.428Z,100876.20
2023-05-14T22:08:11.467Z,100872.52
2023-05-14T22:10:38.413Z,100871.80
2023-05-14T22:13:05.343Z,100868.11
2023-05-14T22:15:32.245Z,100866.85
2023-05-14T22:17:59.163Z,100870.85
2023-05-14T22:20:26.097Z,100868.76
2023-05-14T22:22:53.239Z,100866.11
2023-05-14T22:25:20.302Z,100863.96
2023-05-14T22:27:47.153Z,100862.04
2023-05-14T22:30:14.066Z,100863.77
2023-05-14T22:32:41.062Z,100861.33
2023-05-14T22:35:08.492Z,100861.36
2023-05-14T22:37:35.526Z,100862.54
2023-05-14T22:40:05.245Z,100858.59
2023-05-14T22:42:32.117Z,100862.98
2023-05-14T22:44:59.059Z,100865.02
2023-05-14T22:47:26.001Z,100869.22
2023-05-14T22:49:52.848Z,100865.38
2023-05-14T22:52:19.720Z,100865.58
2023-05-14T22:54:46.922Z,100863.23
2023-05-14T22:57:13.862Z,100865.13
2023-05-14T22:59:40.954Z,100863.91
2023-05-14T23:02:08.129Z,100860.20
2023-05-14T23:04:35.510Z,100855.45
2023-05-14T23:07:02.471Z,100854.98
2023-05-14T23:09:29.596Z,100852.77
2023-05-14T23:11:56.394Z,100853.83
2023-05-14T23:14:23.308Z,100848.52
2023-05-14T23:16:50.390Z,100849.07
2023-05-14T23:19:17.651Z,100849.29
2023-05-14T23:21:44.866Z,100846.49
2023-05-14T23:24:11.883Z,100844.98
2023-05-14T23:26:38.697Z,100846.20
2023-05-14T23:29:06.142Z,100845.79
2023-05-14T23:31:33.044Z,100847.96
2023-05-14T23:33:59.892Z,100845.83
2023-05-14T23:36:26.787Z,100844.63
2023-05-14T23:38:53.736Z,100849.40
2023-05-14T23:41:21.816Z,100848.46
2023-05-14T23:43:49.313Z,100847.98
2023-05-14T23:46:16.241Z,100846.31
2023-05-14T23:48:43.306Z,100847.05
2023-05-14T23:51:10.564Z,100849.36
2023-05-14T23:53:37.605Z,100855.91
2023-05-14T23:56:04.483Z,100853.86
2023-05-14T23:58:31.596Z,100851.71
